createdAt,value
2022-11-20T00:01:26.502Z,-0.50
2022-11-20T00:03:53.908Z,-0.60
2022-11-20T00:06:20.742Z,-0.50
2022-11-20T00:08:47.448Z,-0.60
2022-11-20T00:11:18.732Z,-0.50
2022-11-20T00:13:45.837Z,-0.50
2022-11-20T00:16:13.720Z,-0.50
2022-11-20T00:18:40.307Z,-0.50
2022-11-20T00:21:08.998Z,-0.30
2022-11-20T00:23:35.569Z,-0.30
2022-11-20T00:26:06.788Z,-0.30
2022-11-20T00:28:33.652Z,-0.30
2022-11-20T00:31:03.792Z,-0.20
2022-11-20T00:33:30.968Z,-0.30
2022-11-20T00:36:07.626Z,-0.20
2022-11-20T00:38:34.295Z,-0.20
2022-11-20T00:41:02.290Z,-0.20
2022-11-20T00:43:28.973Z,-0.10
2022-11-20T00:45:59.263Z,-0.10
2022-11-20T00:48:25.980Z,0.00
2022-11-20T00:50:52.635Z,0.10
2022-11-20T00:53:19.218Z,0.00
2022-11-20T00:55:57.102Z,0.00
2022-11-20T00:58:24.342Z,-0.10
2022-11-20T01:00:51.025Z,-0.10
2022-11-20T01:03:22.723Z,-0.10
2022-11-20T01:05:52.308Z,-0.10
2022-11-20T01:08:18.969Z,0.00
2022-11-20T01:10:45.575Z,0.00
2022-11-20T01:13:30.698Z,0.00
2022-11-20T01:16:03.662Z,0.00
2022-11-20T01:18:30.257Z,0.00
2022-11-20T01:21:00.459Z,0.00
2022-11-20T01:23:27.057Z,0.10
2022-11-20T01:25:53.676Z,0.00
2022-11-20T01:28:20.270Z,0.00
2022-11-20T01:30:46.881Z,0.10
2022-11-20T01:33:13.482Z,0.10
2022-11-20T01:35:40.084Z,0.10
2022-11-20T01:38:06.648Z,0.10
2022-11-20T01:40:33.216Z,0.10
2022-11-20T01:43:23.173Z,0.10
2022-11-20T01:46:04.293Z,0.00
2022-11-20T01:48:34.523Z,0.10
2022-11-20T01:51:01.147Z,0.20
2022-11-20T01:53:31.611Z,0.20
2022-11-20T01:55:58.377Z,0.20
2022-11-20T01:58:31.031Z,0.10
2022-11-20T02:00:57.650Z,0.30
2022-11-20T02:03:24.268Z,0.20
2022-11-20T02:05:56.851Z,0.20
2022-11-20T02:08:23.523Z,0.10
2022-11-20T02:10:50.116Z,0.00
2022-11-20T02:13:35.709Z,0.10
2022-11-20T02:16:02.771Z,0.10
2022-11-20T02:18:29.393Z,0.20
2022-11-20T02:21:02.093Z,0.20
2022-11-20T02:23:33.511Z,0.20
2022-11-20T02:26:00.597Z,0.20
2022-11-20T02:28:27.215Z,0.20
2022-11-20T02:30:53.813Z,0.30
2022-11-20T02:33:20.394Z,0.30
2022-11-20T02:35:47.367Z,0.30
2022-11-20T02:38:14.179Z,0.30
2022-11-20T02:40:40.922Z,0.30
2022-11-20T02:43:07.528Z,0.30
2022-11-20T02:45:34.179Z,0.30
2022-11-20T02:48:00.820Z,0.30
2022-11-20T02:50:27.410Z,0.40
2022-11-20T02:52:54.030Z,0.30
2022-11-20T02:55:20.623Z,0.30
2022-11-20T02:57:47.172Z,0.30
2022-11-20T03:00:14.267Z,0.30
2022-11-20T03:02:40.956Z,0.30
2022-11-20T03:05:07.745Z,0.30
2022-11-20T03:07:34.603Z,0.30
2022-11-20T03:10:01.247Z,0.40
2022-11-20T03:12:28.117Z,0.30
2022-11-20T03:14:54.701Z,0.30
2022-11-20T03:17:21.291Z,0.30
2022-11-20T03:19:47.883Z,0.20
2022-11-20T03:22:14.544Z,0.20
2022-11-20T03:24:41.170Z,0.20
2022-11-20T03:27:07.861Z,0.30
2022-11-20T03:29:35.677Z,0.30
2022-11-20T03:32:02.284Z,0.40
2022-11-20T03:34:29.182Z,0.40
2022-11-20T03:36:55.793Z,0.40
2022-11-20T03:39:22.515Z,0.40
2022-11-20T03:41:49.284Z,0.40
2022-11-20T03:44:15.927Z,0.40
2022-11-20T03:46:42.500Z,0.40
2022-11-20T03:49:09.065Z,0.40
2022-11-20T03:51:36.425Z,0.40
2022-11-20T03:54:07.675Z,0.40
2022-11-20T03:56:35.946Z,0.40
2022-11-20T03:59:06.095Z,0.40
2022-11-20T04:01:34.482Z,0.40
2022-11-20T04:04:01.109Z,0.40
2022-11-20T04:06:29.599Z,0.40
2022-11-20T04:08:56.887Z,0.40
2022-11-20T04:11:28.276Z,0.30
2022-11-20T04:13:56.352Z,0.20
2022-11-20T04:16:23.268Z,0.30
2022-11-20T04:18:57.287Z,0.30
2022-11-20T04:21:24.158Z,0.30
2022-11-20T04:23:51.369Z,0.40
2022-11-20T04:26:17.976Z,0.40
2022-11-20T04:28:44.566Z,0.40
2022-11-20T04:31:15.740Z,0.40
2022-11-20T04:33:42.323Z,0.50
2022-11-20T04:36:13.470Z,0.50
2022-11-20T04:38:40.368Z,0.50
2022-11-20T04:41:08.526Z,0.40
2022-11-20T04:43:35.244Z,0.40
2022-11-20T04:46:01.972Z,0.50
2022-11-20T04:48:29.339Z,0.50
2022-11-20T04:50:56.176Z,0.60
2022-11-20T04:53:22.889Z,0.60
2022-11-20T04:55:49.541Z,0.60
2022-11-20T04:58:16.563Z,0.60
2022-11-20T05:00:43.156Z,0.60
2022-11-20T05:03:09.775Z,0.60
2022-11-20T05:05:36.384Z,0.60
2022-11-20T05:08:05.656Z,0.60
2022-11-20T05:10:32.242Z,0.60
2022-11-20T05:12:58.840Z,0.50
2022-11-20T05:15:25.679Z,0.40
2022-11-20T05:17:52.981Z,0.30
2022-11-20T05:20:19.805Z,0.30
2022-11-20T05:22:46.502Z,0.30
2022-11-20T05:25:13.164Z,0.30
2022-11-20T05:27:39.806Z,0.30
2022-11-20T05:30:06.967Z,0.30
2022-11-20T05:32:33.581Z,0.30
2022-11-20T05:35:00.222Z,0.20
2022-11-20T05:37:26.812Z,0.30
2022-11-20T05:39:53.377Z,0.30
2022-11-20T05:42:31.794Z,0.30
2022-11-20T05:45:03.273Z,0.30
2022-11-20T05:47:33.971Z,0.30
2022-11-20T05:50:00.584Z,0.20
2022-11-20T05:52:30.267Z,0.30
2022-11-20T05:54:58.031Z,0.30
2022-11-20T05:57:24.648Z,0.40
2022-11-20T05:59:51.253Z,0.40
2022-11-20T06:02:17.902Z,0.50
2022-11-20T06:04:44.514Z,0.50
2022-11-20T06:07:11.356Z,0.40
2022-11-20T06:09:38.038Z,0.40
2022-11-20T06:12:04.998Z,0.50
2022-11-20T06:14:31.583Z,0.50
2022-11-20T06:16:58.230Z,0.50
2022-11-20T06:19:24.889Z,0.60
2022-11-20T06:21:51.548Z,0.50
2022-11-20T06:24:18.189Z,0.60
2022-11-20T06:26:45.038Z,0.60
2022-11-20T06:29:11.708Z,0.60
2022-11-20T06:31:38.613Z,0.60
2022-11-20T06:34:06.974Z,0.60
2022-11-20T06:36:33.764Z,0.60
2022-11-20T06:39:00.865Z,0.60
2022-11-20T06:41:28.841Z,0.60
2022-11-20T06:43:55.621Z,0.40
2022-11-20T06:46:22.420Z,0.30
2022-11-20T06:48:49.640Z,0.40
2022-11-20T06:51:16.305Z,0.40
2022-11-20T06:53:42.983Z,0.50
2022-11-20T06:56:09.726Z,0.50
2022-11-20T06:58:36.834Z,0.50
2022-11-20T07:01:08.185Z,0.50
2022-11-20T07:03:34.920Z,0.60
2022-11-20T07:06:01.781Z,0.50
2022-11-20T07:08:28.439Z,0.60
2022-11-20T07:10:58.509Z,0.60
2022-11-20T07:13:25.139Z,0.60
2022-11-20T07:15:51.794Z,0.70
2022-11-20T07:18:18.371Z,0.80
2022-11-20T07:20:45.054Z,0.80
2022-11-20T07:23:11.668Z,0.80
2022-11-20T07:25:38.316Z,0.90
2022-11-20T07:28:05.034Z,0.90
2022-11-20T07:30:31.649Z,1.00
2022-11-20T07:32:58.380Z,0.90
2022-11-20T07:35:25.546Z,0.80
2022-11-20T07:37:52.209Z,0.70
2022-11-20T07:40:18.874Z,0.80
2022-11-20T07:42:57.802Z,0.90
2022-11-20T07:45:24.753Z,0.90
2022-11-20T07:47:51.712Z,0.90
2022-11-20T07:50:18.663Z,1.00
2022-11-20T07:52:45.296Z,1.00
2022-11-20T07:55:12.099Z,1.00
2022-11-20T07:57:38.728Z,0.90
2022-11-20T08:00:06.258Z,0.90
2022-11-20T08:02:32.836Z,0.90
2022-11-20T08:04:59.657Z,1.00
2022-11-20T08:07:26.325Z,0.90
2022-11-20T08:09:52.948Z,0.80
2022-11-20T08:12:38.989Z,0.90
2022-11-20T08:15:12.527Z,0.90
2022-11-20T08:17:39.707Z,1.00
2022-11-20T08:20:06.586Z,0.90
2022-11-20T08:22:33.317Z,1.10
2022-11-20T08:24:59.908Z,1.20
2022-11-20T08:27:26.512Z,1.30
2022-11-20T08:29:53.138Z,1.40
2022-11-20T08:32:19.715Z,1.50
2022-11-20T08:34:47.234Z,1.60
2022-11-20T08:37:13.808Z,1.50
2022-11-20T08:39:40.679Z,1.50
2022-11-20T08:42:10.952Z,1.60
2022-11-20T08:44:37.536Z,1.50
2022-11-20T08:47:04.107Z,1.50
2022-11-20T08:49:30.703Z,1.60
2022-11-20T08:51:58.085Z,1.60
2022-11-20T08:54:24.699Z,1.60
2022-11-20T08:56:51.297Z,1.80
2022-11-20T08:59:36.794Z,1.70
2022-11-20T09:02:04.440Z,1.60
2022-11-20T09:04:31.057Z,1.70
2022-11-20T09:06:57.746Z,1.70
2022-11-20T09:09:24.658Z,1.80
2022-11-20T09:11:51.520Z,1.90
2022-11-20T09:14:18.113Z,1.80
2022-11-20T09:16:46.683Z,1.70
2022-11-20T09:19:34.672Z,1.80
2022-11-20T09:22:00.940Z,1.90
2022-11-20T09:24:28.125Z,1.80
2022-11-20T09:26:54.797Z,1.80
2022-11-20T09:29:21.733Z,1.70
2022-11-20T09:31:48.561Z,1.80
2022-11-20T09:34:15.215Z,1.90
2022-11-20T09:36:41.827Z,2.00
2022-11-20T09:39:08.394Z,2.10
2022-11-20T09:41:57.259Z,2.10
2022-11-20T09:44:53.126Z,2.10
2022-11-20T09:48:07.564Z,2.30
2022-11-20T09:51:00.448Z,2.10
2022-11-20T09:53:45.316Z,2.30
2022-11-20T09:56:11.894Z,2.30
2022-11-20T09:58:43.682Z,2.40
2022-11-20T10:01:17.794Z,2.50
2022-11-20T10:04:11.267Z,2.40
2022-11-20T10:06:59.692Z,2.40
2022-11-20T10:09:37.900Z,2.30
2022-11-20T10:12:24.537Z,2.30
2022-11-20T10:14:57.351Z,2.30
2022-11-20T10:17:51.817Z,2.50
2022-11-20T10:20:55.540Z,2.60
2022-11-20T10:24:00.516Z,2.70
2022-11-20T10:26:48.937Z,2.80
2022-11-20T10:29:19.838Z,2.80
2022-11-20T10:31:58.096Z,2.70
2022-11-20T10:34:30.338Z,2.80
2022-11-20T10:37:17.489Z,2.90
2022-11-20T10:40:02.812Z,3.00
2022-11-20T10:42:52.085Z,3.20
2022-11-20T10:45:41.327Z,3.20
2022-11-20T10:48:08.246Z,3.00
2022-11-20T10:50:39.587Z,3.10
2022-11-20T10:53:08.612Z,3.00
2022-11-20T10:55:46.186Z,2.90
2022-11-20T10:58:35.322Z,2.90
2022-11-20T11:01:06.372Z,2.80
2022-11-20T11:03:33.098Z,3.00
2022-11-20T11:06:10.009Z,3.00
2022-11-20T11:08:38.906Z,3.00
2022-11-20T11:11:28.478Z,3.10
2022-11-20T11:14:08.702Z,3.20
2022-11-20T11:16:35.322Z,2.90
2022-11-20T11:19:15.113Z,3.10
2022-11-20T11:22:00.300Z,3.20
2022-11-20T11:24:44.178Z,2.90
2022-11-20T11:27:18.039Z,2.90
2022-11-20T11:29:45.354Z,2.80
2022-11-20T11:32:22.674Z,2.90
2022-11-20T11:35:05.985Z,3.00
2022-11-20T11:37:36.969Z,3.10
2022-11-20T11:40:23.371Z,3.20
2022-11-20T11:42:57.599Z,3.20
2022-11-20T11:45:24.268Z,3.20
2022-11-20T11:47:52.405Z,3.20
2022-11-20T11:50:19.342Z,3.20
2022-11-20T11:52:48.297Z,3.10
2022-11-20T11:55:39.040Z,3.00
2022-11-20T11:58:27.026Z,3.00
2022-11-20T12:01:23.002Z,3.00
2022-11-20T12:04:09.090Z,3.10
2022-11-20T12:06:35.823Z,3.30
2022-11-20T12:09:04.670Z,3.50
2022-11-20T12:11:46.521Z,3.50
2022-11-20T12:14:24.908Z,3.50
2022-11-20T12:16:51.741Z,3.50
2022-11-20T12:19:18.333Z,3.50
2022-11-20T12:21:58.494Z,3.70
2022-11-20T12:24:48.527Z,3.70
2022-11-20T12:27:24.007Z,3.90
2022-11-20T12:30:09.743Z,3.90
2022-11-20T12:32:58.010Z,4.10
2022-11-20T12:36:06.200Z,4.10
2022-11-20T12:38:51.512Z,4.20
2022-11-20T12:41:42.773Z,4.20
2022-11-20T12:44:55.114Z,4.20
2022-11-20T12:47:27.549Z,4.10
2022-11-20T12:50:02.104Z,4.00
2022-11-20T12:52:40.268Z,3.90
2022-11-20T12:55:22.512Z,3.70
2022-11-20T12:58:02.532Z,3.60
2022-11-20T13:00:29.235Z,3.50
2022-11-20T13:03:01.823Z,3.60
2022-11-20T13:05:56.200Z,3.60
2022-11-20T13:08:28.752Z,3.70
2022-11-20T13:11:08.309Z,3.70
2022-11-20T13:13:49.565Z,3.80
2022-11-20T13:16:26.012Z,3.80
2022-11-20T13:18:52.613Z,3.90
2022-11-20T13:21:23.804Z,4.00
2022-11-20T13:23:50.575Z,4.00
2022-11-20T13:26:21.858Z,4.00
2022-11-20T13:28:49.592Z,3.90
2022-11-20T13:31:32.388Z,3.80
2022-11-20T13:33:59.028Z,3.80
2022-11-20T13:36:27.601Z,3.70
2022-11-20T13:38:55.295Z,3.80
2022-11-20T13:41:29.696Z,3.80
2022-11-20T13:44:33.801Z,3.80
2022-11-20T13:47:00.448Z,3.70
2022-11-20T13:49:31.129Z,3.80
2022-11-20T13:52:24.512Z,3.80
2022-11-20T13:55:03.022Z,3.80
2022-11-20T13:57:35.546Z,3.70
2022-11-20T14:00:18.252Z,3.70
2022-11-20T14:02:45.706Z,3.60
2022-11-20T14:05:21.909Z,3.50
2022-11-20T14:07:48.784Z,3.30
2022-11-20T14:10:31.976Z,3.30
2022-11-20T14:12:59.553Z,3.20
2022-11-20T14:15:32.873Z,3.10
2022-11-20T14:18:00.098Z,3.00
2022-11-20T14:20:32.105Z,2.80
2022-11-20T14:22:58.731Z,2.70
2022-11-20T14:25:28.186Z,2.60
2022-11-20T14:27:56.269Z,2.60
2022-11-20T14:30:30.238Z,2.50
2022-11-20T14:32:58.453Z,2.50
2022-11-20T14:35:29.981Z,2.50
2022-11-20T14:37:56.754Z,2.50
2022-11-20T14:40:23.738Z,2.50
2022-11-20T14:42:50.508Z,2.50
2022-11-20T14:45:17.208Z,2.50
2022-11-20T14:47:43.981Z,2.40
2022-11-20T14:50:28.272Z,2.40
2022-11-20T14:52:59.677Z,2.40
2022-11-20T14:55:31.615Z,2.40
2022-11-20T14:58:02.847Z,2.40
2022-11-20T15:00:30.307Z,2.50
2022-11-20T15:02:56.975Z,2.50
2022-11-20T15:05:45.642Z,2.50
2022-11-20T15:08:16.498Z,2.50
2022-11-20T15:10:50.051Z,2.60
2022-11-20T15:13:33.453Z,2.60
2022-11-20T15:16:01.472Z,2.60
2022-11-20T15:18:33.345Z,2.50
2022-11-20T15:21:02.588Z,2.50
2022-11-20T15:23:29.632Z,2.60
2022-11-20T15:25:56.323Z,2.50
2022-11-20T15:28:29.498Z,2.50
2022-11-20T15:30:57.324Z,2.50
2022-11-20T15:33:23.937Z,2.50
2022-11-20T15:35:50.599Z,2.50
2022-11-20T15:38:17.334Z,2.50
2022-11-20T15:40:44.038Z,2.50
2022-11-20T15:43:13.558Z,2.50
2022-11-20T15:45:49.628Z,2.50
2022-11-20T15:48:17.409Z,2.50
2022-11-20T15:51:00.708Z,2.60
2022-11-20T15:53:27.470Z,2.60
2022-11-20T15:55:54.198Z,2.60
2022-11-20T15:58:20.942Z,2.60
2022-11-20T16:00:47.584Z,2.60
2022-11-20T16:03:15.110Z,2.60
2022-11-20T16:05:41.794Z,2.70
2022-11-20T16:08:11.573Z,2.70
2022-11-20T16:10:38.760Z,2.70
2022-11-20T16:13:24.186Z,2.70
2022-11-20T16:15:56.155Z,2.70
2022-11-20T16:18:22.979Z,2.70
2022-11-20T16:20:54.597Z,2.70
2022-11-20T16:23:21.738Z,2.70
2022-11-20T16:25:48.465Z,2.80
2022-11-20T16:28:18.800Z,2.80
2022-11-20T16:30:46.020Z,2.80
2022-11-20T16:33:15.986Z,2.80
2022-11-20T16:35:42.690Z,2.90
2022-11-20T16:38:09.499Z,2.90
2022-11-20T16:40:36.271Z,2.90
2022-11-20T16:43:08.802Z,2.90
2022-11-20T16:45:35.512Z,2.90
2022-11-20T16:48:02.195Z,2.90
2022-11-20T16:50:28.820Z,3.00
2022-11-20T16:52:55.968Z,3.00
2022-11-20T16:55:22.620Z,3.00
2022-11-20T16:57:49.277Z,3.00
2022-11-20T17:00:16.283Z,3.00
2022-11-20T17:02:42.934Z,3.00
2022-11-20T17:05:09.647Z,3.10
2022-11-20T17:07:37.818Z,3.10
2022-11-20T17:10:04.822Z,3.10
2022-11-20T17:12:31.456Z,3.10
2022-11-20T17:14:58.096Z,3.20
2022-11-20T17:17:24.752Z,3.20
2022-11-20T17:19:51.482Z,3.20
2022-11-20T17:22:18.097Z,3.20
2022-11-20T17:24:44.698Z,3.20
2022-11-20T17:27:11.513Z,3.30
2022-11-20T17:29:42.059Z,3.30
2022-11-20T17:32:09.072Z,3.30
2022-11-20T17:34:35.687Z,3.40
2022-11-20T17:37:02.374Z,3.40
2022-11-20T17:39:29.012Z,3.40
2022-11-20T17:42:14.306Z,3.30
2022-11-20T17:44:42.622Z,3.40
2022-11-20T17:47:09.296Z,3.40
2022-11-20T17:49:35.880Z,3.40
2022-11-20T17:52:02.524Z,3.50
2022-11-20T17:54:29.269Z,3.50
2022-11-20T17:57:14.552Z,3.50
2022-11-20T17:59:41.200Z,3.50
2022-11-20T18:02:08.740Z,3.50
2022-11-20T18:04:35.431Z,3.50
2022-11-20T18:07:02.083Z,3.60
2022-11-20T18:09:28.786Z,3.60
2022-11-20T18:11:55.391Z,3.60
2022-11-20T18:14:36.297Z,3.60
2022-11-20T18:17:07.786Z,3.60
2022-11-20T18:19:40.256Z,3.70
2022-11-20T18:22:12.390Z,3.70
2022-11-20T18:24:39.541Z,3.60
2022-11-20T18:27:07.287Z,3.70
2022-11-20T18:29:34.006Z,3.70
2022-11-20T18:32:01.186Z,3.70
2022-11-20T18:34:27.939Z,3.70
2022-11-20T18:36:54.622Z,3.80
2022-11-20T18:39:21.771Z,3.70
2022-11-20T18:42:07.089Z,3.70
2022-11-20T18:44:52.086Z,3.70
2022-11-20T18:47:30.462Z,3.70
2022-11-20T18:49:58.817Z,3.80
2022-11-20T18:52:38.593Z,3.70
2022-11-20T18:55:06.010Z,3.70
2022-11-20T18:57:32.895Z,3.70
2022-11-20T19:00:03.546Z,3.80
2022-11-20T19:02:36.676Z,3.90
2022-11-20T19:05:07.627Z,3.90
2022-11-20T19:07:34.354Z,3.90
2022-11-20T19:10:03.709Z,3.90
2022-11-20T19:12:31.021Z,3.90
2022-11-20T19:14:57.936Z,3.90
2022-11-20T19:17:24.652Z,3.90
2022-11-20T19:19:52.090Z,4.00
2022-11-20T19:22:18.728Z,3.90
2022-11-20T19:24:45.903Z,4.00
2022-11-20T19:27:12.571Z,4.00
2022-11-20T19:29:39.383Z,4.10
2022-11-20T19:32:06.162Z,4.10
2022-11-20T19:34:32.789Z,4.10
2022-11-20T19:37:00.763Z,4.10
2022-11-20T19:39:27.511Z,4.20
2022-11-20T19:41:54.326Z,4.20
2022-11-20T19:44:21.047Z,4.30
2022-11-20T19:46:47.785Z,4.30
2022-11-20T19:49:14.595Z,4.40
2022-11-20T19:51:45.777Z,4.40
2022-11-20T19:54:12.477Z,4.40
2022-11-20T19:56:39.180Z,4.40
2022-11-20T19:59:05.965Z,4.50
2022-11-20T20:01:32.709Z,4.50
2022-11-20T20:04:05.006Z,4.50
2022-11-20T20:06:32.410Z,4.50
2022-11-20T20:09:09.337Z,4.50
2022-11-20T20:11:36.168Z,4.50
2022-11-20T20:14:10.753Z,4.60
2022-11-20T20:16:37.432Z,4.60
2022-11-20T20:19:04.613Z,4.60
2022-11-20T20:21:31.993Z,4.60
2022-11-20T20:23:58.824Z,4.70
2022-11-20T20:26:26.274Z,4.60
2022-11-20T20:28:52.957Z,4.70
2022-11-20T20:31:21.184Z,4.70
2022-11-20T20:33:47.928Z,4.70
2022-11-20T20:36:15.855Z,4.70
2022-11-20T20:38:43.233Z,4.70
2022-11-20T20:41:10.044Z,4.70
2022-11-20T20:43:57.082Z,4.80
2022-11-20T20:46:24.050Z,4.70
2022-11-20T20:48:54.369Z,4.70
2022-11-20T20:51:21.864Z,4.80
2022-11-20T20:53:48.591Z,4.70
2022-11-20T20:56:15.327Z,4.80
2022-11-20T20:58:42.065Z,4.80
2022-11-20T21:01:13.288Z,4.80
2022-11-20T21:03:40.086Z,4.80
2022-11-20T21:06:07.387Z,4.80
2022-11-20T21:08:34.785Z,4.80
2022-11-20T21:11:04.949Z,4.80
2022-11-20T21:13:31.828Z,4.90
2022-11-20T21:15:58.518Z,4.80
2022-11-20T21:18:25.546Z,4.90
2022-11-20T21:21:10.650Z,4.90
2022-11-20T21:23:37.449Z,5.00
2022-11-20T21:26:08.549Z,5.00
2022-11-20T21:28:35.729Z,5.10
2022-11-20T21:31:10.069Z,5.10
2022-11-20T21:33:44.306Z,5.10
2022-11-20T21:36:12.471Z,5.10
2022-11-20T21:38:39.267Z,5.10
2022-11-20T21:41:06.962Z,5.10
2022-11-20T21:43:33.738Z,5.10
2022-11-20T21:46:18.617Z,5.20
2022-11-20T21:48:45.873Z,5.20
2022-11-20T21:51:19.775Z,5.20
2022-11-20T21:53:46.932Z,5.20
2022-11-20T21:56:17.705Z,5.20
2022-11-20T21:58:46.897Z,5.30
2022-11-20T22:01:27.305Z,5.30
2022-11-20T22:03:57.157Z,5.30
2022-11-20T22:06:29.702Z,5.30
2022-11-20T22:08:56.322Z,5.30
2022-11-20T22:11:23.018Z,5.40
2022-11-20T22:14:08.097Z,5.40
2022-11-20T22:16:35.848Z,5.40
2022-11-20T22:19:02.503Z,5.40
2022-11-20T22:21:30.071Z,5.40
2022-11-20T22:23:56.946Z,5.40
2022-11-20T22:26:25.253Z,5.40
2022-11-20T22:28:53.498Z,5.40
2022-11-20T22:31:21.111Z,5.40
2022-11-20T22:33:47.822Z,5.40
2022-11-20T22:36:18.309Z,5.40
2022-11-20T22:38:44.987Z,5.40
2022-11-20T22:41:22.193Z,5.40
2022-11-20T22:43:48.886Z,5.40
2022-11-20T22:46:19.238Z,5.40
2022-11-20T22:48:50.760Z,5.50
2022-11-20T22:51:17.933Z,5.50
2022-11-20T22:53:44.616Z,5.50
2022-11-20T22:56:14.937Z,5.60
2022-11-20T22:58:43.191Z,5.70
2022-11-20T23:01:26.614Z,5.70
2022-11-20T23:03:55.931Z,5.70
2022-11-20T23:06:22.739Z,5.70
2022-11-20T23:08:50.044Z,5.80
2022-11-20T23:11:21.434Z,5.80
2022-11-20T23:13:48.184Z,5.80
2022-11-20T23:16:16.408Z,5.80
2022-11-20T23:18:43.351Z,5.90
2022-11-20T23:21:10.811Z,5.90
2022-11-20T23:23:37.684Z,5.90
2022-11-20T23:26:08.961Z,5.90
2022-11-20T23:28:35.910Z,5.90
2022-11-20T23:31:03.628Z,6.00
2022-11-20T23:33:30.376Z,6.00
2022-11-20T23:35:57.046Z,6.00
2022-11-20T23:38:23.774Z,5.90
2022-11-20T23:40:51.016Z,6.00
2022-11-20T23:43:18.194Z,6.00
2022-11-20T23:45:46.299Z,6.00
2022-11-20T23:48:12.979Z,6.00
2022-11-20T23:50:39.773Z,6.00
2022-11-20T23:53:06.475Z,6.00
2022-11-20T23:55:33.455Z,6.00
2022-11-20T23:58:00.194Z,6.00
